sensor_id;sensor_type;location;lat;lon;timestamp;P1;durP1;ratioP1;P2;durP2;ratioP2
51248;SDS011;39642;47.556;18.728;2023-04-12T00:01:57;7.65;;;2.20;;
51248;SDS011;39642;47.556;18.728;2023-04-12T00:04:23;7.57;;;2.37;;
51248;SDS011;39642;47.556;18.728;2023-04-12T00:06:51;6.65;;;1.95;;
51248;SDS011;39642;47.556;18.728;2023-04-12T00:09:19;7.50;;;2.00;;
51248;SDS011;39642;47.556;18.728;2023-04-12T00:11:45;7.18;;;2.10;;
51248;SDS011;39642;47.556;18.728;2023-04-12T00:14:11;8.75;;;2.20;;
51248;SDS011;39642;47.556;18.728;2023-04-12T00:16:37;7.70;;;2.00;;
51248;SDS011;39642;47.556;18.728;2023-04-12T00:19:03;8.75;;;2.10;;
51248;SDS011;39642;47.556;18.728;2023-04-12T00:21:31;8.77;;;2.10;;
51248;SDS011;39642;47.556;18.728;2023-04-12T00:23:57;8.38;;;2.40;;
51248;SDS011;39642;47.556;18.728;2023-04-12T00:26:23;8.43;;;2.20;;
51248;SDS011;39642;47.556;18.728;2023-04-12T00:28:51;7.62;;;2.00;;
51248;SDS011;39642;47.556;18.728;2023-04-12T00:31:17;6.28;;;1.80;;
51248;SDS011;39642;47.556;18.728;2023-04-12T00:33:43;7.20;;;2.00;;
51248;SDS011;39642;47.556;18.728;2023-04-12T00:36:09;7.62;;;2.10;;
51248;SDS011;39642;47.556;18.728;2023-04-12T00:38:35;7.30;;;2.10;;
51248;SDS011;39642;47.556;18.728;2023-04-12T00:41:01;7.03;;;2.15;;
51248;SDS011;39642;47.556;18.728;2023-04-12T00:43:27;6.60;;;1.80;;
51248;SDS011;39642;47.556;18.728;2023-04-12T00:45:53;6.65;;;2.00;;
51248;SDS011;39642;47.556;18.728;2023-04-12T00:48:22;6.30;;;1.98;;
51248;SDS011;39642;47.556;18.728;2023-04-12T00:50:49;7.95;;;2.22;;
51248;SDS011;39642;47.556;18.728;2023-04-12T00:53:15;7.70;;;2.20;;
51248;SDS011;39642;47.556;18.728;2023-04-12T00:55:43;7.75;;;2.20;;
51248;SDS011;39642;47.556;18.728;2023-04-12T00:58:09;7.32;;;2.10;;
51248;SDS011;39642;47.556;18.728;2023-04-12T01:00:35;5.70;;;1.95;;
51248;SDS011;39642;47.556;18.728;2023-04-12T01:03:01;6.12;;;1.80;;
51248;SDS011;39642;47.556;18.728;2023-04-12T01:05:29;7.28;;;2.03;;
51248;SDS011;39642;47.556;18.728;2023-04-12T01:08:02;7.32;;;2.20;;
51248;SDS011;39642;47.556;18.728;2023-04-12T01:10:48;6.43;;;1.95;;
51248;SDS011;39642;47.556;18.728;2023-04-12T01:13:27;6.78;;;1.90;;
51248;SDS011;39642;47.556;18.728;2023-04-12T01:19:28;7.12;;;1.95;;
51248;SDS011;39642;47.556;18.728;2023-04-12T01:27:47;7.18;;;2.00;;
51248;SDS011;39642;47.556;18.728;2023-04-12T01:30:15;6.12;;;2.00;;
51248;SDS011;39642;47.556;18.728;2023-04-12T01:32:44;6.50;;;1.90;;
51248;SDS011;39642;47.556;18.728;2023-04-12T01:35:19;7.30;;;2.00;;
51248;SDS011;39642;47.556;18.728;2023-04-12T01:37:47;8.23;;;2.17;;
51248;SDS011;39642;47.556;18.728;2023-04-12T01:40:13;6.40;;;1.80;;
51248;SDS011;39642;47.556;18.728;2023-04-12T01:42:40;7.43;;;2.03;;
51248;SDS011;39642;47.556;18.728;2023-04-12T01:45:06;7.70;;;2.12;;
51248;SDS011;39642;47.556;18.728;2023-04-12T01:47:32;7.20;;;1.90;;
51248;SDS011;39642;47.556;18.728;2023-04-12T01:52:37;7.10;;;2.10;;
51248;SDS011;39642;47.556;18.728;2023-04-12T01:55:09;7.15;;;2.00;;
51248;SDS011;39642;47.556;18.728;2023-04-12T01:57:38;7.85;;;2.03;;
51248;SDS011;39642;47.556;18.728;2023-04-12T02:00:07;6.60;;;1.90;;
51248;SDS011;39642;47.556;18.728;2023-04-12T02:02:36;6.62;;;1.80;;
51248;SDS011;39642;47.556;18.728;2023-04-12T02:05:04;6.78;;;1.90;;
51248;SDS011;39642;47.556;18.728;2023-04-12T02:07:32;5.75;;;1.80;;
51248;SDS011;39642;47.556;18.728;2023-04-12T02:09:59;6.68;;;1.83;;
51248;SDS011;39642;47.556;18.728;2023-04-12T02:12:25;6.62;;;1.87;;
51248;SDS011;39642;47.556;18.728;2023-04-12T02:14:51;5.43;;;1.90;;
51248;SDS011;39642;47.556;18.728;2023-04-12T02:17:17;7.45;;;1.87;;
51248;SDS011;39642;47.556;18.728;2023-04-12T02:19:44;6.12;;;1.77;;
51248;SDS011;39642;47.556;18.728;2023-04-12T02:22:10;7.25;;;1.90;;
51248;SDS011;39642;47.556;18.728;2023-04-12T02:24:36;6.68;;;2.00;;
51248;SDS011;39642;47.556;18.728;2023-04-12T02:27:01;7.57;;;1.90;;
51248;SDS011;39642;47.556;18.728;2023-04-12T02:29:28;6.62;;;1.92;;
51248;SDS011;39642;47.556;18.728;2023-04-12T02:31:54;6.35;;;1.98;;
51248;SDS011;39642;47.556;18.728;2023-04-12T02:34:20;6.05;;;2.00;;
51248;SDS011;39642;47.556;18.728;2023-04-12T02:36:47;8.13;;;2.00;;
51248;SDS011;39642;47.556;18.728;2023-04-12T02:39:14;6.57;;;1.87;;
51248;SDS011;39642;47.556;18.728;2023-04-12T02:41:43;6.57;;;1.90;;
51248;SDS011;39642;47.556;18.728;2023-04-12T02:44:09;6.15;;;1.98;;
51248;SDS011;39642;47.556;18.728;2023-04-12T02:46:35;6.50;;;1.80;;
51248;SDS011;39642;47.556;18.728;2023-04-12T02:49:01;7.65;;;1.95;;
51248;SDS011;39642;47.556;18.728;2023-04-12T02:51:27;6.65;;;1.98;;
51248;SDS011;39642;47.556;18.728;2023-04-12T02:53:53;5.93;;;1.80;;
51248;SDS011;39642;47.556;18.728;2023-04-12T02:56:19;6.05;;;1.80;;
51248;SDS011;39642;47.556;18.728;2023-04-12T02:58:46;7.10;;;1.90;;
51248;SDS011;39642;47.556;18.728;2023-04-12T03:01:12;6.87;;;1.80;;
51248;SDS011;39642;47.556;18.728;2023-04-12T03:03:38;8.15;;;1.90;;
51248;SDS011;39642;47.556;18.728;2023-04-12T03:06:05;6.10;;;1.85;;
51248;SDS011;39642;47.556;18.728;2023-04-12T03:08:34;7.15;;;2.03;;
51248;SDS011;39642;47.556;18.728;2023-04-12T03:11:00;7.25;;;1.85;;
51248;SDS011;39642;47.556;18.728;2023-04-12T03:13:26;4.90;;;1.65;;
51248;SDS011;39642;47.556;18.728;2023-04-12T03:15:54;6.72;;;2.00;;
51248;SDS011;39642;47.556;18.728;2023-04-12T03:18:21;8.10;;;2.22;;
51248;SDS011;39642;47.556;18.728;2023-04-12T03:20:48;7.82;;;1.75;;
51248;SDS011;39642;47.556;18.728;2023-04-12T03:23:14;5.70;;;1.80;;
51248;SDS011;39642;47.556;18.728;2023-04-12T03:25:40;5.90;;;1.85;;
51248;SDS011;39642;47.556;18.728;2023-04-12T03:28:06;7.37;;;1.95;;
51248;SDS011;39642;47.556;18.728;2023-04-12T03:30:32;6.75;;;1.80;;
51248;SDS011;39642;47.556;18.728;2023-04-12T03:32:58;7.62;;;2.05;;
51248;SDS011;39642;47.556;18.728;2023-04-12T03:35:24;6.65;;;2.08;;
51248;SDS011;39642;47.556;18.728;2023-04-12T03:37:50;7.18;;;1.90;;
51248;SDS011;39642;47.556;18.728;2023-04-12T03:40:16;6.10;;;1.90;;
51248;SDS011;39642;47.556;18.728;2023-04-12T03:42:42;6.62;;;1.80;;
51248;SDS011;39642;47.556;18.728;2023-04-12T03:45:07;6.50;;;1.73;;
51248;SDS011;39642;47.556;18.728;2023-04-12T03:47:34;6.18;;;1.80;;
51248;SDS011;39642;47.556;18.728;2023-04-12T03:50:03;8.05;;;1.98;;
51248;SDS011;39642;47.556;18.728;2023-04-12T03:52:35;5.47;;;1.73;;
51248;SDS011;39642;47.556;18.728;2023-04-12T03:55:00;7.07;;;1.80;;
51248;SDS011;39642;47.556;18.728;2023-04-12T03:57:26;7.22;;;1.85;;
51248;SDS011;39642;47.556;18.728;2023-04-12T03:59:52;8.07;;;1.95;;
51248;SDS011;39642;47.556;18.728;2023-04-12T04:02:18;5.90;;;1.75;;
51248;SDS011;39642;47.556;18.728;2023-04-12T04:04:44;6.80;;;1.90;;
51248;SDS011;39642;47.556;18.728;2023-04-12T04:07:10;6.93;;;1.80;;
51248;SDS011;39642;47.556;18.728;2023-04-12T04:09:36;6.00;;;1.70;;
51248;SDS011;39642;47.556;18.728;2023-04-12T04:12:02;6.15;;;1.83;;
51248;SDS011;39642;47.556;18.728;2023-04-12T04:14:28;7.95;;;1.98;;
51248;SDS011;39642;47.556;18.728;2023-04-12T04:16:53;5.37;;;1.62;;
51248;SDS011;39642;47.556;18.728;2023-04-12T04:19:20;5.87;;;1.80;;
51248;SDS011;39642;47.556;18.728;2023-04-12T04:21:46;6.57;;;1.73;;
51248;SDS011;39642;47.556;18.728;2023-04-12T04:24:12;5.97;;;1.70;;
51248;SDS011;39642;47.556;18.728;2023-04-12T04:26:38;6.05;;;1.80;;
51248;SDS011;39642;47.556;18.728;2023-04-12T04:29:04;6.95;;;1.90;;
51248;SDS011;39642;47.556;18.728;2023-04-12T04:31:30;6.45;;;1.83;;
51248;SDS011;39642;47.556;18.728;2023-04-12T04:34:04;7.72;;;1.80;;
51248;SDS011;39642;47.556;18.728;2023-04-12T04:36:32;6.18;;;1.90;;
51248;SDS011;39642;47.556;18.728;2023-04-12T04:39:00;6.80;;;1.80;;
51248;SDS011;39642;47.556;18.728;2023-04-12T04:41:26;7.35;;;1.90;;
51248;SDS011;39642;47.556;18.728;2023-04-12T04:43:52;7.87;;;2.03;;
51248;SDS011;39642;47.556;18.728;2023-04-12T04:46:19;6.37;;;1.80;;
51248;SDS011;39642;47.556;18.728;2023-04-12T04:48:48;7.12;;;2.17;;
51248;SDS011;39642;47.556;18.728;2023-04-12T04:51:16;8.98;;;2.20;;
51248;SDS011;39642;47.556;18.728;2023-04-12T04:53:42;8.30;;;2.15;;
51248;SDS011;39642;47.556;18.728;2023-04-12T04:56:09;6.28;;;2.00;;
51248;SDS011;39642;47.556;18.728;2023-04-12T04:58:35;7.82;;;1.90;;
51248;SDS011;39642;47.556;18.728;2023-04-12T05:01:01;7.43;;;2.00;;
51248;SDS011;39642;47.556;18.728;2023-04-12T05:03:28;9.00;;;2.40;;
51248;SDS011;39642;47.556;18.728;2023-04-12T05:05:54;7.35;;;2.12;;
51248;SDS011;39642;47.556;18.728;2023-04-12T05:08:23;7.00;;;2.05;;
51248;SDS011;39642;47.556;18.728;2023-04-12T05:10:53;8.00;;;2.17;;
51248;SDS011;39642;47.556;18.728;2023-04-12T05:13:20;9.13;;;2.65;;
51248;SDS011;39642;47.556;18.728;2023-04-12T05:15:46;8.18;;;2.60;;
51248;SDS011;39642;47.556;18.728;2023-04-12T05:18:13;9.93;;;2.90;;
51248;SDS011;39642;47.556;18.728;2023-04-12T05:20:39;11.98;;;2.90;;
51248;SDS011;39642;47.556;18.728;2023-04-12T05:23:05;13.32;;;3.28;;
51248;SDS011;39642;47.556;18.728;2023-04-12T05:25:31;13.80;;;3.25;;
51248;SDS011;39642;47.556;18.728;2023-04-12T05:28:00;12.57;;;3.28;;
51248;SDS011;39642;47.556;18.728;2023-04-12T05:30:26;13.30;;;3.10;;
51248;SDS011;39642;47.556;18.728;2023-04-12T05:32:52;12.82;;;2.72;;
51248;SDS011;39642;47.556;18.728;2023-04-12T05:35:18;12.13;;;2.78;;
51248;SDS011;39642;47.556;18.728;2023-04-12T05:37:44;13.25;;;2.65;;
51248;SDS011;39642;47.556;18.728;2023-04-12T05:40:10;16.27;;;3.22;;
51248;SDS011;39642;47.556;18.728;2023-04-12T05:42:36;12.35;;;2.58;;
51248;SDS011;39642;47.556;18.728;2023-04-12T05:45:03;9.02;;;2.72;;
51248;SDS011;39642;47.556;18.728;2023-04-12T05:47:35;16.37;;;2.90;;
51248;SDS011;39642;47.556;18.728;2023-04-12T05:50:02;15.60;;;3.07;;
51248;SDS011;39642;47.556;18.728;2023-04-12T05:52:29;11.85;;;3.28;;
51248;SDS011;39642;47.556;18.728;2023-04-12T05:54:55;15.93;;;3.12;;
51248;SDS011;39642;47.556;18.728;2023-04-12T05:57:21;12.77;;;3.37;;
51248;SDS011;39642;47.556;18.728;2023-04-12T05:59:47;18.65;;;3.15;;
51248;SDS011;39642;47.556;18.728;2023-04-12T06:02:14;13.18;;;2.90;;
51248;SDS011;39642;47.556;18.728;2023-04-12T06:04:44;16.48;;;2.72;;
51248;SDS011;39642;47.556;18.728;2023-04-12T06:07:10;21.87;;;4.10;;
51248;SDS011;39642;47.556;18.728;2023-04-12T06:09:37;23.10;;;4.32;;
51248;SDS011;39642;47.556;18.728;2023-04-12T06:12:05;12.20;;;2.80;;
51248;SDS011;39642;47.556;18.728;2023-04-12T06:14:31;21.87;;;4.15;;
51248;SDS011;39642;47.556;18.728;2023-04-12T06:16:57;27.05;;;4.43;;
51248;SDS011;39642;47.556;18.728;2023-04-12T06:19:24;24.60;;;4.22;;
51248;SDS011;39642;47.556;18.728;2023-04-12T06:21:53;13.48;;;2.65;;
51248;SDS011;39642;47.556;18.728;2023-04-12T06:24:19;10.90;;;2.28;;
51248;SDS011;39642;47.556;18.728;2023-04-12T06:26:48;11.12;;;2.25;;
51248;SDS011;39642;47.556;18.728;2023-04-12T06:29:14;12.07;;;2.50;;
51248;SDS011;39642;47.556;18.728;2023-04-12T06:31:42;11.43;;;2.50;;
51248;SDS011;39642;47.556;18.728;2023-04-12T06:34:09;12.50;;;2.50;;
51248;SDS011;39642;47.556;18.728;2023-04-12T06:36:36;9.85;;;2.40;;
51248;SDS011;39642;47.556;18.728;2023-04-12T06:39:06;12.00;;;2.40;;
51248;SDS011;39642;47.556;18.728;2023-04-12T06:41:36;11.90;;;2.55;;
51248;SDS011;39642;47.556;18.728;2023-04-12T06:44:02;19.02;;;2.90;;
51248;SDS011;39642;47.556;18.728;2023-04-12T06:46:28;9.65;;;2.10;;
51248;SDS011;39642;47.556;18.728;2023-04-12T06:48:55;14.55;;;2.20;;
51248;SDS011;39642;47.556;18.728;2023-04-12T06:51:21;13.15;;;2.42;;
51248;SDS011;39642;47.556;18.728;2023-04-12T06:53:49;12.02;;;2.55;;
51248;SDS011;39642;47.556;18.728;2023-04-12T06:56:17;12.73;;;2.03;;
51248;SDS011;39642;47.556;18.728;2023-04-12T06:58:44;16.10;;;2.95;;
51248;SDS011;39642;47.556;18.728;2023-04-12T07:01:10;15.15;;;2.53;;
51248;SDS011;39642;47.556;18.728;2023-04-12T07:03:39;14.73;;;2.65;;
51248;SDS011;39642;47.556;18.728;2023-04-12T07:06:08;16.33;;;2.83;;
51248;SDS011;39642;47.556;18.728;2023-04-12T07:08:38;19.75;;;2.85;;
51248;SDS011;39642;47.556;18.728;2023-04-12T07:11:05;19.42;;;2.75;;
51248;SDS011;39642;47.556;18.728;2023-04-12T07:13:33;18.42;;;2.60;;
51248;SDS011;39642;47.556;18.728;2023-04-12T07:15:59;18.55;;;2.87;;
51248;SDS011;39642;47.556;18.728;2023-04-12T07:18:26;13.62;;;2.78;;
51248;SDS011;39642;47.556;18.728;2023-04-12T07:20:53;19.02;;;2.60;;
51248;SDS011;39642;47.556;18.728;2023-04-12T07:23:22;17.25;;;2.75;;
51248;SDS011;39642;47.556;18.728;2023-04-12T07:25:50;16.50;;;3.20;;
51248;SDS011;39642;47.556;18.728;2023-04-12T07:28:18;13.65;;;2.90;;
51248;SDS011;39642;47.556;18.728;2023-04-12T07:30:46;21.08;;;3.33;;
51248;SDS011;39642;47.556;18.728;2023-04-12T07:33:13;19.65;;;3.12;;
51248;SDS011;39642;47.556;18.728;2023-04-12T07:35:41;14.45;;;2.70;;
51248;SDS011;39642;47.556;18.728;2023-04-12T07:38:08;22.45;;;3.47;;
51248;SDS011;39642;47.556;18.728;2023-04-12T07:40:35;16.95;;;2.87;;
51248;SDS011;39642;47.556;18.728;2023-04-12T07:43:03;17.48;;;3.35;;
51248;SDS011;39642;47.556;18.728;2023-04-12T07:45:30;22.13;;;4.60;;
51248;SDS011;39642;47.556;18.728;2023-04-12T07:47:56;25.00;;;5.07;;
51248;SDS011;39642;47.556;18.728;2023-04-12T07:50:22;22.13;;;4.15;;
51248;SDS011;39642;47.556;18.728;2023-04-12T07:52:49;25.12;;;3.72;;
51248;SDS011;39642;47.556;18.728;2023-04-12T07:55:17;25.60;;;3.83;;
51248;SDS011;39642;47.556;18.728;2023-04-12T07:57:43;23.42;;;4.60;;
51248;SDS011;39642;47.556;18.728;2023-04-12T08:00:09;26.05;;;4.03;;
51248;SDS011;39642;47.556;18.728;2023-04-12T08:02:36;32.58;;;4.60;;
51248;SDS011;39642;47.556;18.728;2023-04-12T08:05:02;35.08;;;3.85;;
51248;SDS011;39642;47.556;18.728;2023-04-12T08:07:29;25.77;;;4.12;;
51248;SDS011;39642;47.556;18.728;2023-04-12T08:09:55;29.17;;;4.18;;
51248;SDS011;39642;47.556;18.728;2023-04-12T08:12:21;23.87;;;3.80;;
51248;SDS011;39642;47.556;18.728;2023-04-12T08:14:47;29.85;;;3.75;;
51248;SDS011;39642;47.556;18.728;2023-04-12T08:17:14;22.05;;;2.85;;
51248;SDS011;39642;47.556;18.728;2023-04-12T08:19:53;35.53;;;3.65;;
51248;SDS011;39642;47.556;18.728;2023-04-12T08:22:21;23.80;;;3.75;;
51248;SDS011;39642;47.556;18.728;2023-04-12T08:24:48;16.50;;;2.92;;
51248;SDS011;39642;47.556;18.728;2023-04-12T08:27:14;20.27;;;2.90;;
51248;SDS011;39642;47.556;18.728;2023-04-12T08:29:41;14.05;;;2.78;;
51248;SDS011;39642;47.556;18.728;2023-04-12T08:32:07;14.80;;;2.60;;
51248;SDS011;39642;47.556;18.728;2023-04-12T08:34:36;17.52;;;3.05;;
51248;SDS011;39642;47.556;18.728;2023-04-12T08:37:02;16.08;;;2.80;;
51248;SDS011;39642;47.556;18.728;2023-04-12T08:39:30;16.83;;;2.80;;
51248;SDS011;39642;47.556;18.728;2023-04-12T08:41:57;17.42;;;3.10;;
51248;SDS011;39642;47.556;18.728;2023-04-12T08:44:32;23.73;;;3.72;;
51248;SDS011;39642;47.556;18.728;2023-04-12T08:47:03;21.12;;;3.42;;
51248;SDS011;39642;47.556;18.728;2023-04-12T08:49:30;29.77;;;3.50;;
51248;SDS011;39642;47.556;18.728;2023-04-12T08:51:59;27.42;;;3.12;;
51248;SDS011;39642;47.556;18.728;2023-04-12T08:54:27;17.62;;;3.05;;
51248;SDS011;39642;47.556;18.728;2023-04-12T08:56:54;20.55;;;3.40;;
51248;SDS011;39642;47.556;18.728;2023-04-12T08:59:24;26.20;;;2.92;;
51248;SDS011;39642;47.556;18.728;2023-04-12T09:01:52;32.80;;;3.45;;
51248;SDS011;39642;47.556;18.728;2023-04-12T09:04:20;22.42;;;3.08;;
51248;SDS011;39642;47.556;18.728;2023-04-12T09:06:46;26.30;;;3.08;;
51248;SDS011;39642;47.556;18.728;2023-04-12T09:09:12;21.85;;;2.70;;
51248;SDS011;39642;47.556;18.728;2023-04-12T09:11:38;21.98;;;3.20;;
51248;SDS011;39642;47.556;18.728;2023-04-12T09:14:20;21.02;;;2.87;;
51248;SDS011;39642;47.556;18.728;2023-04-12T09:16:48;17.10;;;2.90;;
51248;SDS011;39642;47.556;18.728;2023-04-12T09:19:15;30.00;;;3.40;;
51248;SDS011;39642;47.556;18.728;2023-04-12T09:21:51;13.45;;;3.58;;
51248;SDS011;39642;47.556;18.728;2023-04-12T09:24:19;23.25;;;2.70;;
51248;SDS011;39642;47.556;18.728;2023-04-12T09:27:09;22.35;;;2.97;;
51248;SDS011;39642;47.556;18.728;2023-04-12T09:29:35;21.35;;;2.80;;
51248;SDS011;39642;47.556;18.728;2023-04-12T09:32:02;15.02;;;2.62;;
51248;SDS011;39642;47.556;18.728;2023-04-12T09:34:30;15.43;;;2.60;;
51248;SDS011;39642;47.556;18.728;2023-04-12T09:36:57;25.92;;;2.92;;
51248;SDS011;39642;47.556;18.728;2023-04-12T09:39:30;20.30;;;2.70;;
51248;SDS011;39642;47.556;18.728;2023-04-12T09:42:04;18.05;;;3.55;;
51248;SDS011;39642;47.556;18.728;2023-04-12T09:44:31;20.58;;;3.22;;
51248;SDS011;39642;47.556;18.728;2023-04-12T09:47:01;14.98;;;2.33;;
51248;SDS011;39642;47.556;18.728;2023-04-12T09:52:06;22.80;;;3.03;;
51248;SDS011;39642;47.556;18.728;2023-04-12T09:57:11;37.42;;;3.87;;
51248;SDS011;39642;47.556;18.728;2023-04-12T09:59:39;18.50;;;2.90;;
51248;SDS011;39642;47.556;18.728;2023-04-12T10:02:16;32.70;;;3.45;;
51248;SDS011;39642;47.556;18.728;2023-04-12T10:04:44;24.30;;;3.25;;
51248;SDS011;39642;47.556;18.728;2023-04-12T10:07:10;20.65;;;3.00;;
51248;SDS011;39642;47.556;18.728;2023-04-12T10:09:37;18.58;;;2.70;;
51248;SDS011;39642;47.556;18.728;2023-04-12T10:12:04;21.70;;;2.80;;
51248;SDS011;39642;47.556;18.728;2023-04-12T10:14:31;21.90;;;2.90;;
51248;SDS011;39642;47.556;18.728;2023-04-12T10:16:58;20.80;;;3.22;;
51248;SDS011;39642;47.556;18.728;2023-04-12T10:19:26;15.55;;;2.67;;
51248;SDS011;39642;47.556;18.728;2023-04-12T10:21:54;24.17;;;3.28;;
51248;SDS011;39642;47.556;18.728;2023-04-12T10:24:21;23.90;;;2.75;;
51248;SDS011;39642;47.556;18.728;2023-04-12T10:26:52;14.73;;;3.00;;
51248;SDS011;39642;47.556;18.728;2023-04-12T10:29:24;16.65;;;2.90;;
51248;SDS011;39642;47.556;18.728;2023-04-12T10:31:51;16.70;;;2.85;;
51248;SDS011;39642;47.556;18.728;2023-04-12T10:34:28;19.85;;;2.90;;
51248;SDS011;39642;47.556;18.728;2023-04-12T10:36:56;21.25;;;3.20;;
51248;SDS011;39642;47.556;18.728;2023-04-12T10:39:42;16.05;;;2.92;;
51248;SDS011;39642;47.556;18.728;2023-04-12T10:42:28;21.70;;;3.10;;
51248;SDS011;39642;47.556;18.728;2023-04-12T10:44:56;24.33;;;3.28;;
51248;SDS011;39642;47.556;18.728;2023-04-12T10:55:34;21.20;;;2.97;;
51248;SDS011;39642;47.556;18.728;2023-04-12T10:58:04;18.83;;;2.97;;
51248;SDS011;39642;47.556;18.728;2023-04-12T11:03:26;19.73;;;2.85;;
51248;SDS011;39642;47.556;18.728;2023-04-12T11:06:00;28.27;;;3.10;;
51248;SDS011;39642;47.556;18.728;2023-04-12T11:08:31;18.55;;;2.42;;
51248;SDS011;39642;47.556;18.728;2023-04-12T11:11:04;16.23;;;2.95;;
51248;SDS011;39642;47.556;18.728;2023-04-12T11:13:42;22.75;;;3.10;;
51248;SDS011;39642;47.556;18.728;2023-04-12T11:16:09;19.75;;;2.92;;
51248;SDS011;39642;47.556;18.728;2023-04-12T11:18:37;16.55;;;3.00;;
51248;SDS011;39642;47.556;18.728;2023-04-12T11:21:03;17.92;;;2.87;;
51248;SDS011;39642;47.556;18.728;2023-04-12T11:23:30;11.45;;;3.00;;
51248;SDS011;39642;47.556;18.728;2023-04-12T11:25:57;16.00;;;2.80;;
51248;SDS011;39642;47.556;18.728;2023-04-12T11:28:23;15.68;;;2.83;;
51248;SDS011;39642;47.556;18.728;2023-04-12T11:30:54;16.27;;;2.40;;
51248;SDS011;39642;47.556;18.728;2023-04-12T11:33:39;18.08;;;3.15;;
51248;SDS011;39642;47.556;18.728;2023-04-12T11:36:10;21.65;;;3.05;;
51248;SDS011;39642;47.556;18.728;2023-04-12T11:38:37;26.73;;;3.30;;
51248;SDS011;39642;47.556;18.728;2023-04-12T11:41:07;34.13;;;3.37;;
51248;SDS011;39642;47.556;18.728;2023-04-12T11:43:34;38.13;;;7.75;;
51248;SDS011;39642;47.556;18.728;2023-04-12T11:46:03;25.08;;;3.90;;
51248;SDS011;39642;47.556;18.728;2023-04-12T11:48:29;41.40;;;5.18;;
51248;SDS011;39642;47.556;18.728;2023-04-12T11:50:55;27.05;;;5.25;;
51248;SDS011;39642;47.556;18.728;2023-04-12T11:53:26;33.05;;;6.90;;
51248;SDS011;39642;47.556;18.728;2023-04-12T11:55:53;35.78;;;6.32;;
51248;SDS011;39642;47.556;18.728;2023-04-12T11:58:22;43.65;;;5.50;;
51248;SDS011;39642;47.556;18.728;2023-04-12T12:00:50;32.50;;;7.03;;
51248;SDS011;39642;47.556;18.728;2023-04-12T12:03:16;22.62;;;5.03;;
51248;SDS011;39642;47.556;18.728;2023-04-12T12:05:43;30.30;;;5.60;;
51248;SDS011;39642;47.556;18.728;2023-04-12T12:08:10;28.35;;;4.80;;
51248;SDS011;39642;47.556;18.728;2023-04-12T12:10:37;24.27;;;4.32;;
51248;SDS011;39642;47.556;18.728;2023-04-12T12:13:11;25.30;;;4.82;;
51248;SDS011;39642;47.556;18.728;2023-04-12T12:15:38;23.50;;;6.10;;
51248;SDS011;39642;47.556;18.728;2023-04-12T12:18:09;18.30;;;5.90;;
51248;SDS011;39642;47.556;18.728;2023-04-12T12:20:41;30.75;;;5.10;;
51248;SDS011;39642;47.556;18.728;2023-04-12T12:23:29;23.70;;;5.60;;
51248;SDS011;39642;47.556;18.728;2023-04-12T12:25:59;28.85;;;5.53;;
51248;SDS011;39642;47.556;18.728;2023-04-12T12:28:28;21.57;;;5.00;;
51248;SDS011;39642;47.556;18.728;2023-04-12T12:30:55;21.25;;;4.43;;
51248;SDS011;39642;47.556;18.728;2023-04-12T12:33:22;21.02;;;3.85;;
51248;SDS011;39642;47.556;18.728;2023-04-12T12:35:55;26.00;;;7.97;;
51248;SDS011;39642;47.556;18.728;2023-04-12T12:38:21;26.00;;;7.10;;
51248;SDS011;39642;47.556;18.728;2023-04-12T12:40:47;25.55;;;6.78;;
51248;SDS011;39642;47.556;18.728;2023-04-12T12:43:17;20.00;;;4.80;;
51248;SDS011;39642;47.556;18.728;2023-04-12T12:45:44;18.25;;;4.30;;
51248;SDS011;39642;47.556;18.728;2023-04-12T12:48:12;18.02;;;5.68;;
51248;SDS011;39642;47.556;18.728;2023-04-12T12:50:38;19.62;;;5.25;;
51248;SDS011;39642;47.556;18.728;2023-04-12T12:53:04;20.33;;;4.50;;
51248;SDS011;39642;47.556;18.728;2023-04-12T12:55:31;19.85;;;4.68;;
51248;SDS011;39642;47.556;18.728;2023-04-12T12:57:57;20.67;;;3.95;;
51248;SDS011;39642;47.556;18.728;2023-04-12T13:11:11;31.60;;;4.18;;
51248;SDS011;39642;47.556;18.728;2023-04-12T13:13:37;20.92;;;3.67;;
51248;SDS011;39642;47.556;18.728;2023-04-12T13:16:03;23.58;;;3.50;;
51248;SDS011;39642;47.556;18.728;2023-04-12T13:18:29;19.27;;;4.03;;
51248;SDS011;39642;47.556;18.728;2023-04-12T13:20:55;17.70;;;3.80;;
51248;SDS011;39642;47.556;18.728;2023-04-12T13:23:21;20.88;;;3.40;;
51248;SDS011;39642;47.556;18.728;2023-04-12T13:25:47;23.48;;;3.72;;
51248;SDS011;39642;47.556;18.728;2023-04-12T13:28:13;14.32;;;3.42;;
51248;SDS011;39642;47.556;18.728;2023-04-12T13:30:41;26.10;;;3.40;;
51248;SDS011;39642;47.556;18.728;2023-04-12T13:33:07;16.50;;;3.00;;
51248;SDS011;39642;47.556;18.728;2023-04-12T13:35:33;19.60;;;3.25;;
51248;SDS011;39642;47.556;18.728;2023-04-12T13:37:59;23.45;;;3.08;;
51248;SDS011;39642;47.556;18.728;2023-04-12T13:40:25;17.58;;;3.08;;
51248;SDS011;39642;47.556;18.728;2023-04-12T13:42:51;14.07;;;2.83;;
51248;SDS011;39642;47.556;18.728;2023-04-12T13:45:17;18.10;;;3.20;;
51248;SDS011;39642;47.556;18.728;2023-04-12T13:47:42;14.23;;;2.72;;
51248;SDS011;39642;47.556;18.728;2023-04-12T13:50:08;14.40;;;2.90;;
51248;SDS011;39642;47.556;18.728;2023-04-12T13:52:35;17.17;;;2.70;;
51248;SDS011;39642;47.556;18.728;2023-04-12T13:55:01;13.95;;;2.60;;
51248;SDS011;39642;47.556;18.728;2023-04-12T13:57:29;15.52;;;2.50;;
51248;SDS011;39642;47.556;18.728;2023-04-12T13:59:55;15.05;;;2.92;;
51248;SDS011;39642;47.556;18.728;2023-04-12T14:02:20;17.05;;;2.30;;
51248;SDS011;39642;47.556;18.728;2023-04-12T14:04:50;16.58;;;2.60;;
51248;SDS011;39642;47.556;18.728;2023-04-12T14:07:18;16.58;;;3.15;;
51248;SDS011;39642;47.556;18.728;2023-04-12T14:09:45;13.05;;;2.28;;
51248;SDS011;39642;47.556;18.728;2023-04-12T14:12:12;11.98;;;2.50;;
51248;SDS011;39642;47.556;18.728;2023-04-12T14:14:39;11.02;;;2.25;;
51248;SDS011;39642;47.556;18.728;2023-04-12T14:17:05;13.85;;;2.50;;
51248;SDS011;39642;47.556;18.728;2023-04-12T14:19:31;11.10;;;2.15;;
51248;SDS011;39642;47.556;18.728;2023-04-12T14:21:57;11.73;;;2.50;;
51248;SDS011;39642;47.556;18.728;2023-04-12T14:24:22;11.77;;;2.45;;
51248;SDS011;39642;47.556;18.728;2023-04-12T14:26:48;14.65;;;2.75;;
51248;SDS011;39642;47.556;18.728;2023-04-12T14:29:15;8.75;;;2.10;;
51248;SDS011;39642;47.556;18.728;2023-04-12T14:31:41;10.38;;;2.33;;
51248;SDS011;39642;47.556;18.728;2023-04-12T14:34:08;10.35;;;2.30;;
51248;SDS011;39642;47.556;18.728;2023-04-12T14:36:35;10.60;;;2.00;;
51248;SDS011;39642;47.556;18.728;2023-04-12T14:39:01;14.38;;;2.12;;
51248;SDS011;39642;47.556;18.728;2023-04-12T14:41:30;11.63;;;2.17;;
51248;SDS011;39642;47.556;18.728;2023-04-12T14:44:00;12.70;;;2.20;;
51248;SDS011;39642;47.556;18.728;2023-04-12T14:46:26;31.30;;;3.28;;
51248;SDS011;39642;47.556;18.728;2023-04-12T14:48:53;9.93;;;2.30;;
51248;SDS011;39642;47.556;18.728;2023-04-12T14:51:19;23.90;;;2.78;;
51248;SDS011;39642;47.556;18.728;2023-04-12T14:53:45;38.15;;;3.92;;
51248;SDS011;39642;47.556;18.728;2023-04-12T14:56:23;42.33;;;4.05;;
51248;SDS011;39642;47.556;18.728;2023-04-12T14:58:53;15.93;;;2.40;;
51248;SDS011;39642;47.556;18.728;2023-04-12T15:01:20;16.10;;;2.62;;
51248;SDS011;39642;47.556;18.728;2023-04-12T15:03:48;19.75;;;2.50;;
51248;SDS011;39642;47.556;18.728;2023-04-12T15:06:16;13.43;;;2.30;;
51248;SDS011;39642;47.556;18.728;2023-04-12T15:08:42;11.27;;;2.40;;